Time;durP1;ratioP1;P1;durP2;ratioP2;P2;SDS_P1;SDS_P2;PMS_P1;PMS_P2;Temp;Humidity;BMP_temperature;BMP_pressure;BME280_temperature;BME280_humidity;BME280_pressure;Samples;Min_cycle;Max_cycle;Signal;HPM_P1;HPM_P2
2023/09/11 00:00:20;;;;;;;14.55;7.95;;;;;;;;;;7370635;19;20090;-67
2023/09/11 00:02:46;;;;;;;14.13;7.47;;;;;;;;;;7371401;19;20014;-67
2023/09/11 00:05:11;;;;;;;14.85;7.80;;;;;;;;;;7372605;19;20094;-67
2023/09/11 00:07:37;;;;;;;16.15;7.90;;;;;;;;;;7394592;19;20021;-68
2023/09/11 00:10:04;;;;;;;15.88;7.50;;;;;;;;;;7371078;19;20513;-67
2023/09/11 00:12:29;;;;;;;17.70;8.30;;;;;;;;;;7369087;19;20093;-67
2023/09/11 00:14:54;;;;;;;16.58;8.10;;;;;;;;;;7370808;19;20017;-67
2023/09/11 00:17:20;;;;;;;14.30;7.88;;;;;;;;;;7371500;19;20354;-67
2023/09/11 00:19:45;;;;;;;14.93;7.68;;;;;;;;;;7371318;19;20338;-67
2023/09/11 00:22:11;;;;;;;18.27;8.23;;;;;;;;;;7391797;19;19998;-67
2023/09/11 00:24:36;;;;;;;14.07;7.55;;;;;;;;;;7370578;19;20333;-67
2023/09/11 00:27:01;;;;;;;15.63;7.35;;;;;;;;;;7371460;19;20047;-67
2023/09/11 00:29:27;;;;;;;16.50;8.35;;;;;;;;;;7370042;19;20018;-67
2023/09/11 00:31:52;;;;;;;14.73;7.70;;;;;;;;;;7370660;19;20003;-67
2023/09/11 00:34:18;;;;;;;17.40;7.75;;;;;;;;;;7392468;19;20038;-67
2023/09/11 00:36:43;;;;;;;15.40;7.90;;;;;;;;;;7371168;19;20050;-67
2023/09/11 00:39:09;;;;;;;14.77;7.47;;;;;;;;;;7370285;19;20013;-67
2023/09/11 00:41:34;;;;;;;18.58;8.88;;;;;;;;;;7369811;19;20048;-67
2023/09/11 00:43:59;;;;;;;12.52;8.23;;;;;;;;;;7370334;19;20020;-67
2023/09/11 00:46:25;;;;;;;17.05;8.45;;;;;;;;;;7392022;19;20003;-67
2023/09/11 00:48:53;;;;;;;15.10;7.70;;;;;;;;;;7370048;19;20038;-67
2023/09/11 00:51:18;;;;;;;13.45;8.32;;;;;;;;;;7369279;19;20358;-68
2023/09/11 00:53:44;;;;;;;16.48;8.15;;;;;;;;;;7369508;19;20459;-67
2023/09/11 00:56:09;;;;;;;17.65;8.68;;;;;;;;;;7371216;19;20010;-68
2023/09/11 00:58:35;;;;;;;13.07;8.55;;;;;;;;;;7392484;19;20026;-67
2023/09/11 01:01:01;;;;;;;14.43;8.40;;;;;;;;;;7369901;19;20014;-67
2023/09/11 01:03:27;;;;;;;14.60;8.90;;;;;;;;;;7369820;19;20074;-67
2023/09/11 01:05:55;;;;;;;17.38;8.63;;;;;;;;;;7371137;19;20031;-67
2023/09/11 01:08:20;;;;;;;19.33;9.18;;;;;;;;;;7370404;19;20010;-67
2023/09/11 01:10:45;;;;;;;15.55;9.27;;;;;;;;;;7367777;19;20017;-68
2023/09/11 01:13:11;;;;;;;15.38;8.98;;;;;;;;;;7390102;19;20003;-68
2023/09/11 01:15:43;;;;;;;18.20;9.43;;;;;;;;;;7368993;19;20460;-67
2023/09/11 01:18:24;;;;;;;14.45;9.10;;;;;;;;;;7370440;19;20010;-67
2023/09/11 01:21:00;;;;;;;16.58;8.93;;;;;;;;;;7369857;19;20103;-67
2023/09/11 01:23:53;;;;;;;14.35;8.63;;;;;;;;;;7368610;19;20519;-67
2023/09/11 01:26:40;;;;;;;14.90;8.65;;;;;;;;;;7370511;19;20009;-67
2023/09/11 01:29:11;;;;;;;15.57;8.40;;;;;;;;;;7369744;19;20035;-67
2023/09/11 01:31:38;;;;;;;15.13;8.60;;;;;;;;;;7389715;19;20009;-67
2023/09/11 01:34:04;;;;;;;17.15;8.55;;;;;;;;;;7369333;19;20420;-67
2023/09/11 01:36:30;;;;;;;18.95;9.05;;;;;;;;;;7365510;19;20050;-67
2023/09/11 01:38:56;;;;;;;15.20;8.25;;;;;;;;;;7364824;19;20500;-67
2023/09/11 01:41:30;;;;;;;17.38;8.65;;;;;;;;;;7364902;19;20022;-67
2023/09/11 01:43:58;;;;;;;14.63;8.55;;;;;;;;;;7365424;19;20266;-67
2023/09/11 01:46:24;;;;;;;16.05;8.52;;;;;;;;;;7385534;19;20006;-67
2023/09/11 01:48:51;;;;;;;20.27;8.75;;;;;;;;;;7365017;19;20011;-67
2023/09/11 01:51:18;;;;;;;15.23;8.63;;;;;;;;;;7366855;19;20010;-67
2023/09/11 01:53:44;;;;;;;13.73;7.70;;;;;;;;;;7368390;19;20121;-67
2023/09/11 01:56:10;;;;;;;17.17;7.95;;;;;;;;;;7369048;19;20063;-67
2023/09/11 01:58:35;;;;;;;16.50;8.23;;;;;;;;;;7390297;19;20007;-67
2023/09/11 02:01:01;;;;;;;12.43;7.20;;;;;;;;;;7367254;19;20007;-67
2023/09/11 02:03:27;;;;;;;15.68;8.20;;;;;;;;;;7365661;19;20006;-67
2023/09/11 02:05:54;;;;;;;17.75;8.13;;;;;;;;;;7367091;19;20022;-67
2023/09/11 02:08:19;;;;;;;14.55;8.02;;;;;;;;;;7368540;19;20017;-67
2023/09/11 02:10:46;;;;;;;12.77;8.50;;;;;;;;;;7366581;19;20033;-67
2023/09/11 02:13:11;;;;;;;13.15;7.75;;;;;;;;;;7382445;19;20744;-68
2023/09/11 02:15:37;;;;;;;13.90;7.60;;;;;;;;;;7367109;19;20002;-67
2023/09/11 02:18:02;;;;;;;14.93;7.78;;;;;;;;;;7367884;19;20006;-67
2023/09/11 02:20:27;;;;;;;14.73;8.52;;;;;;;;;;7367583;19;20010;-67
2023/09/11 02:22:53;;;;;;;15.68;8.18;;;;;;;;;;7367808;19;20019;-67
2023/09/11 02:25:18;;;;;;;13.32;7.85;;;;;;;;;;7390418;19;20338;-67
2023/09/11 02:27:43;;;;;;;13.75;8.23;;;;;;;;;;7368647;19;20524;-67
2023/09/11 02:30:09;;;;;;;11.52;7.40;;;;;;;;;;7367377;19;20005;-67
2023/09/11 02:32:34;;;;;;;14.05;8.02;;;;;;;;;;7363637;19;21282;-67
2023/09/11 02:34:59;;;;;;;13.23;7.78;;;;;;;;;;7367295;19;20006;-67
2023/09/11 02:37:25;;;;;;;14.25;8.40;;;;;;;;;;7388846;19;20002;-67
2023/09/11 02:39:50;;;;;;;13.00;8.88;;;;;;;;;;7367131;19;20448;-67
2023/09/11 02:42:15;;;;;;;14.30;8.48;;;;;;;;;;7365352;19;20024;-67
2023/09/11 02:44:42;;;;;;;15.25;8.98;;;;;;;;;;7367259;19;20350;-67
2023/09/11 02:47:07;;;;;;;14.63;8.85;;;;;;;;;;7367792;19;20070;-67
2023/09/11 02:49:32;;;;;;;16.08;9.07;;;;;;;;;;7389583;19;20024;-67
2023/09/11 02:51:58;;;;;;;14.70;8.95;;;;;;;;;;7365816;19;20014;-67
2023/09/11 02:54:23;;;;;;;13.07;8.40;;;;;;;;;;7366816;19;20015;-67
2023/09/11 02:56:48;;;;;;;15.32;9.15;;;;;;;;;;7367109;19;20010;-67
2023/09/11 02:59:14;;;;;;;14.13;8.93;;;;;;;;;;7367204;19;20017;-67
2023/09/11 03:01:39;;;;;;;14.65;9.07;;;;;;;;;;7385421;19;20041;-67
2023/09/11 03:04:04;;;;;;;19.55;9.45;;;;;;;;;;7366822;19;20002;-69
2023/09/11 03:06:30;;;;;;;18.27;8.80;;;;;;;;;;7365508;19;20148;-68
2023/09/11 03:08:56;;;;;;;15.07;9.27;;;;;;;;;;7367089;19;20018;-68
2023/09/11 03:11:21;;;;;;;15.43;9.20;;;;;;;;;;7364937;19;20006;-68
2023/09/11 03:13:48;;;;;;;17.23;8.52;;;;;;;;;;7366429;19;19999;-68
2023/09/11 03:16:15;;;;;;;14.57;8.35;;;;;;;;;;7392806;19;20477;-68
2023/09/11 03:18:41;;;;;;;14.98;8.23;;;;;;;;;;7373579;19;20473;-68
2023/09/11 03:21:07;;;;;;;14.18;9.07;;;;;;;;;;7373702;19;20006;-67
2023/09/11 03:23:34;;;;;;;15.85;9.23;;;;;;;;;;7370316;19;20016;-68
2023/09/11 03:25:59;;;;;;;22.17;9.57;;;;;;;;;;7373054;19;20356;-68
2023/09/11 03:28:30;;;;;;;17.30;9.05;;;;;;;;;;7394636;19;20003;-68
2023/09/11 03:30:56;;;;;;;16.13;9.07;;;;;;;;;;7371023;19;20035;-68
2023/09/11 03:33:21;;;;;;;15.73;9.25;;;;;;;;;;7371756;19;20019;-66
2023/09/11 03:35:47;;;;;;;17.63;9.93;;;;;;;;;;7373096;19;20075;-68
2023/09/11 03:38:13;;;;;;;16.30;8.90;;;;;;;;;;7371705;19;20015;-68
2023/09/11 03:40:39;;;;;;;19.42;10.13;;;;;;;;;;7395210;19;20010;-67
2023/09/11 03:43:04;;;;;;;15.05;9.75;;;;;;;;;;7369929;19;20006;-67
2023/09/11 03:45:29;;;;;;;15.88;9.63;;;;;;;;;;7372450;19;20010;-67
2023/09/11 03:47:55;;;;;;;19.48;9.60;;;;;;;;;;7372381;19;20744;-66
2023/09/11 03:50:20;;;;;;;21.13;10.35;;;;;;;;;;7371618;19;20017;-66
2023/09/11 03:52:45;;;;;;;17.83;9.40;;;;;;;;;;7369611;19;20020;-67
2023/09/11 03:55:11;;;;;;;16.45;9.75;;;;;;;;;;7393703;19;19999;-67
2023/09/11 03:57:36;;;;;;;17.25;10.35;;;;;;;;;;7371862;19;20002;-67
2023/09/11 04:00:05;;;;;;;18.70;9.55;;;;;;;;;;7372352;19;20007;-67
2023/09/11 04:02:30;;;;;;;18.77;9.35;;;;;;;;;;7368581;19;20031;-67
2023/09/11 04:04:56;;;;;;;21.67;9.45;;;;;;;;;;7370139;19;20002;-67
2023/09/11 04:07:21;;;;;;;15.82;8.73;;;;;;;;;;7393516;19;20148;-67
2023/09/11 04:09:46;;;;;;;16.55;9.27;;;;;;;;;;7371199;19;20362;-67
2023/09/11 04:12:14;;;;;;;19.63;9.38;;;;;;;;;;7370427;19;20010;-69
2023/09/11 04:14:39;;;;;;;15.48;8.98;;;;;;;;;;7372100;19;20375;-68
2023/09/11 04:17:04;;;;;;;19.38;10.18;;;;;;;;;;7371982;19;20035;-68
2023/09/11 04:19:30;;;;;;;16.88;9.55;;;;;;;;;;7394035;19;20003;-68
2023/09/11 04:21:55;;;;;;;16.33;9.63;;;;;;;;;;7369665;19;20377;-69
2023/09/11 04:24:20;;;;;;;17.23;9.13;;;;;;;;;;7371454;19;20010;-67
2023/09/11 04:26:46;;;;;;;17.13;8.90;;;;;;;;;;7369676;19;20041;-68
2023/09/11 04:29:11;;;;;;;15.18;9.40;;;;;;;;;;7372226;19;20006;-68
2023/09/11 04:31:38;;;;;;;15.40;9.32;;;;;;;;;;7390731;19;20033;-68
2023/09/11 04:34:03;;;;;;;15.93;9.45;;;;;;;;;;7371787;19;20014;-67
2023/09/11 04:36:28;;;;;;;16.25;8.23;;;;;;;;;;7371566;19;20610;-68
2023/09/11 04:38:54;;;;;;;17.60;9.10;;;;;;;;;;7371397;19;20572;-68
2023/09/11 04:41:20;;;;;;;18.23;9.15;;;;;;;;;;7371827;19;20425;-68
2023/09/11 04:43:46;;;;;;;14.38;9.32;;;;;;;;;;7371183;19;20007;-67
2023/09/11 04:46:11;;;;;;;16.50;8.15;;;;;;;;;;7393360;19;20400;-68
2023/09/11 04:48:36;;;;;;;12.95;8.77;;;;;;;;;;7371235;19;20006;-68
2023/09/11 04:51:02;;;;;;;14.88;8.70;;;;;;;;;;7370172;19;20039;-67
2023/09/11 04:53:27;;;;;;;12.35;8.00;;;;;;;;;;7367048;19;20027;-67
2023/09/11 04:55:52;;;;;;;13.73;8.20;;;;;;;;;;7371365;19;20009;-68
2023/09/11 04:58:18;;;;;;;17.70;8.68;;;;;;;;;;7378642;19;20059;-69
2023/09/11 05:00:43;;;;;;;15.48;8.65;;;;;;;;;;7361936;19;20399;-68
2023/09/11 05:03:09;;;;;;;19.08;9.43;;;;;;;;;;7366572;19;19998;-68
2023/09/11 05:05:40;;;;;;;14.40;9.32;;;;;;;;;;7367471;19;20014;-68
2023/09/11 05:08:06;;;;;;;16.88;8.77;;;;;;;;;;7370396;19;20888;-68
2023/09/11 05:10:31;;;;;;;21.13;9.32;;;;;;;;;;7389094;19;20007;-68
2023/09/11 05:12:57;;;;;;;16.80;8.77;;;;;;;;;;7367011;19;20009;-68
2023/09/11 05:15:22;;;;;;;17.13;9.60;;;;;;;;;;7369787;19;20127;-68
2023/09/11 05:17:47;;;;;;;17.13;9.82;;;;;;;;;;7369836;19;20010;-69
2023/09/11 05:20:13;;;;;;;14.63;9.48;;;;;;;;;;7370131;19;20014;-68
2023/09/11 05:22:39;;;;;;;16.65;9.35;;;;;;;;;;7377789;19;21029;-68
2023/09/11 05:25:05;;;;;;;14.13;8.10;;;;;;;;;;7369451;19;20014;-68
2023/09/11 05:27:30;;;;;;;15.88;9.07;;;;;;;;;;7369643;19;20003;-67
2023/09/11 05:29:56;;;;;;;12.75;8.30;;;;;;;;;;7366647;19;20404;-68
2023/09/11 05:32:23;;;;;;;13.70;8.70;;;;;;;;;;7369156;19;20002;-68
2023/09/11 05:34:48;;;;;;;13.07;8.52;;;;;;;;;;7369315;19;20007;-67
2023/09/11 05:37:13;;;;;;;18.75;8.20;;;;;;;;;;7391069;19;20029;-67
2023/09/11 05:39:40;;;;;;;12.35;7.65;;;;;;;;;;7368549;19;20002;-67
2023/09/11 05:42:05;;;;;;;16.70;7.68;;;;;;;;;;7367882;19;20715;-67
2023/09/11 05:44:31;;;;;;;11.43;7.82;;;;;;;;;;7369412;19;20011;-67
2023/09/11 05:46:56;;;;;;;12.35;7.32;;;;;;;;;;7368951;19;20013;-66
2023/09/11 05:49:21;;;;;;;10.02;6.72;;;;;;;;;;7389254;19;20006;-66
2023/09/11 05:51:46;;;;;;;15.68;8.32;;;;;;;;;;7367632;19;20367;-66
2023/09/11 05:54:12;;;;;;;15.95;8.38;;;;;;;;;;7366784;19;20003;-67
2023/09/11 05:56:37;;;;;;;16.33;8.43;;;;;;;;;;7367731;19;20017;-68
2023/09/11 05:59:03;;;;;;;13.90;8.13;;;;;;;;;;7368232;19;20022;-67
2023/09/11 06:01:28;;;;;;;13.57;7.75;;;;;;;;;;7388240;19;19999;-67
2023/09/11 06:03:53;;;;;;;12.80;7.88;;;;;;;;;;7367645;19;20051;-68
2023/09/11 06:06:19;;;;;;;16.00;7.60;;;;;;;;;;7368401;19;20037;-69
2023/09/11 06:08:44;;;;;;;12.95;7.25;;;;;;;;;;7367072;19;20251;-68
2023/09/11 06:11:10;;;;;;;15.48;8.15;;;;;;;;;;7367109;19;20021;-68
2023/09/11 06:13:35;;;;;;;18.60;7.60;;;;;;;;;;7387916;19;20548;-68
2023/09/11 06:16:01;;;;;;;15.80;8.15;;;;;;;;;;7367252;19;20007;-68
2023/09/11 06:18:26;;;;;;;12.70;7.05;;;;;;;;;;7367175;19;20480;-60
2023/09/11 06:20:52;;;;;;;12.93;7.65;;;;;;;;;;7367324;19;20046;-60
2023/09/11 06:23:17;;;;;;;12.48;6.88;;;;;;;;;;7366028;19;20006;-60
2023/09/11 06:25:42;;;;;;;10.60;7.28;;;;;;;;;;7365625;19;20007;-60
2023/09/11 06:28:08;;;;;;;17.90;7.43;;;;;;;;;;7387174;19;20003;-60
2023/09/11 06:30:33;;;;;;;12.50;7.82;;;;;;;;;;7368310;19;20006;-59
2023/09/11 06:32:59;;;;;;;17.27;7.07;;;;;;;;;;7365834;19;20035;-59
2023/09/11 06:35:24;;;;;;;18.92;7.25;;;;;;;;;;7366585;19;20021;-59
2023/09/11 06:37:49;;;;;;;18.67;7.18;;;;;;;;;;7367174;19;20050;-59
2023/09/11 06:40:15;;;;;;;14.15;6.82;;;;;;;;;;7389509;19;20007;-59
2023/09/11 06:42:40;;;;;;;23.23;7.25;;;;;;;;;;7366183;19;20025;-58
2023/09/11 06:45:06;;;;;;;9.18;5.63;;;;;;;;;;7368209;19;20139;-55
2023/09/11 06:47:32;;;;;;;12.52;6.50;;;;;;;;;;7366994;19;20014;-57
2023/09/11 06:49:57;;;;;;;12.80;6.50;;;;;;;;;;7365796;19;19998;-59
2023/09/11 06:52:22;;;;;;;12.65;6.72;;;;;;;;;;7386229;19;20006;-58
2023/09/11 06:54:48;;;;;;;17.77;7.03;;;;;;;;;;7364880;19;20014;-59
2023/09/11 06:57:13;;;;;;;14.38;6.05;;;;;;;;;;7366149;19;20023;-59
2023/09/11 06:59:39;;;;;;;15.07;6.55;;;;;;;;;;7364394;19;20015;-60
2023/09/11 07:02:04;;;;;;;13.85;7.03;;;;;;;;;;7364335;19;20466;-59
2023/09/11 07:04:30;;;;;;;13.77;6.07;;;;;;;;;;7387194;19;20029;-59
2023/09/11 07:06:56;;;;;;;15.50;6.13;;;;;;;;;;7364400;19;20002;-59
2023/09/11 07:09:22;;;;;;;16.23;6.20;;;;;;;;;;7365700;19;20021;-57
2023/09/11 07:11:49;;;;;;;13.95;6.43;;;;;;;;;;7364153;19;20007;-58
2023/09/11 07:14:22;;;;;;;15.98;5.93;;;;;;;;;;7365405;19;20094;-58
2023/09/11 07:16:47;;;;;;;18.30;6.55;;;;;;;;;;7364774;19;20520;-59
2023/09/11 07:19:12;;;;;;;15.20;7.68;;;;;;;;;;7387523;19;20007;-54
2023/09/11 07:21:38;;;;;;;20.02;8.23;;;;;;;;;;7362718;19;21478;-59
2023/09/11 07:24:03;;;;;;;15.80;6.95;;;;;;;;;;7364531;19;20011;-59
2023/09/11 07:26:29;;;;;;;14.90;7.03;;;;;;;;;;7364483;19;20026;-59
2023/09/11 07:29:02;;;;;;;16.88;7.15;;;;;;;;;;7366324;19;20027;-59
2023/09/11 07:31:29;;;;;;;18.88;7.00;;;;;;;;;;7384597;19;20356;-61
2023/09/11 07:33:54;;;;;;;14.93;7.20;;;;;;;;;;7366272;19;20006;-59
2023/09/11 07:36:19;;;;;;;14.55;7.05;;;;;;;;;;7364676;19;20014;-60
2023/09/11 07:38:45;;;;;;;14.55;7.40;;;;;;;;;;7365415;19;20014;-60
2023/09/11 07:41:15;;;;;;;14.00;7.15;;;;;;;;;;7364670;19;20027;-58
2023/09/11 07:43:40;;;;;;;17.27;7.40;;;;;;;;;;7384087;19;20013;-60
2023/09/11 07:46:05;;;;;;;16.50;6.32;;;;;;;;;;7364827;19;20111;-60
2023/09/11 07:48:31;;;;;;;15.55;7.03;;;;;;;;;;7355144;19;20035;-59
2023/09/11 07:50:56;;;;;;;12.43;7.22;;;;;;;;;;7363818;19;20131;-60
2023/09/11 07:53:22;;;;;;;11.82;6.25;;;;;;;;;;7363494;19;20010;-58
2023/09/11 07:55:48;;;;;;;20.00;6.95;;;;;;;;;;7364483;19;20511;-60
2023/09/11 07:58:13;;;;;;;11.40;6.07;;;;;;;;;;7386098;19;20788;-60
2023/09/11 08:00:39;;;;;;;17.00;6.88;;;;;;;;;;7361625;19;20010;-60
2023/09/11 08:03:04;;;;;;;12.27;6.30;;;;;;;;;;7365971;19;20014;-60
2023/09/11 08:05:29;;;;;;;11.00;6.07;;;;;;;;;;7371246;19;20035;-60
2023/09/11 08:07:55;;;;;;;15.45;5.93;;;;;;;;;;7370384;19;19998;-60
2023/09/11 08:10:20;;;;;;;13.77;6.47;;;;;;;;;;7390194;19;20002;-60
2023/09/11 08:12:45;;;;;;;12.00;5.53;;;;;;;;;;7369642;19;20417;-59
2023/09/11 08:15:11;;;;;;;13.40;6.45;;;;;;;;;;7371653;19;20589;-59
2023/09/11 08:17:37;;;;;;;15.55;5.88;;;;;;;;;;7370750;19;20612;-60
2023/09/11 08:20:03;;;;;;;15.30;6.15;;;;;;;;;;7370226;19;20070;-59
2023/09/11 08:22:28;;;;;;;10.02;5.45;;;;;;;;;;7390197;19;20005;-59
2023/09/11 08:24:53;;;;;;;13.80;5.78;;;;;;;;;;7370731;19;20349;-59
2023/09/11 08:27:20;;;;;;;11.60;6.05;;;;;;;;;;7369119;19;19999;-57
2023/09/11 08:29:45;;;;;;;8.98;5.75;;;;;;;;;;7370027;19;20006;-59
2023/09/11 08:32:11;;;;;;;12.30;5.25;;;;;;;;;;7369810;19;20013;-60
2023/09/11 08:34:36;;;;;;;16.08;6.13;;;;;;;;;;7392917;19;20011;-60
2023/09/11 08:37:02;;;;;;;10.68;5.50;;;;;;;;;;7370341;19;20007;-58
2023/09/11 08:39:27;;;;;;;13.85;5.68;;;;;;;;;;7370468;19;20077;-62
2023/09/11 08:41:57;;;;;;;17.45;6.03;;;;;;;;;;7367946;19;20010;-60
2023/09/11 08:44:22;;;;;;;11.05;5.32;;;;;;;;;;7370285;19;20002;-61
2023/09/11 08:46:49;;;;;;;13.57;5.15;;;;;;;;;;7371126;19;20452;-59
2023/09/11 08:49:17;;;;;;;14.88;5.78;;;;;;;;;;7392749;19;20009;-59
2023/09/11 08:51:52;;;;;;;13.65;4.97;;;;;;;;;;7370602;19;20007;-59
2023/09/11 08:54:18;;;;;;;19.10;6.50;;;;;;;;;;7372708;19;19995;-58
2023/09/11 08:56:44;;;;;;;10.90;5.22;;;;;;;;;;7371228;19;20003;-59
2023/09/11 08:59:11;;;;;;;15.90;5.22;;;;;;;;;;7372511;19;20086;-61
2023/09/11 09:01:39;;;;;;;12.13;6.03;;;;;;;;;;7389162;19;20082;-59
2023/09/11 09:04:06;;;;;;;10.98;5.65;;;;;;;;;;7369744;19;20014;-59
2023/09/11 09:06:34;;;;;;;10.68;5.68;;;;;;;;;;7370139;19;19999;-60
2023/09/11 09:09:00;;;;;;;19.27;5.93;;;;;;;;;;7371455;19;20062;-58
2023/09/11 09:11:26;;;;;;;14.10;5.35;;;;;;;;;;7366698;19;20037;-60
2023/09/11 09:13:51;;;;;;;11.85;5.70;;;;;;;;;;7370592;19;20006;-59
2023/09/11 09:16:16;;;;;;;18.38;5.93;;;;;;;;;;7391365;19;20354;-58
2023/09/11 09:18:48;;;;;;;12.55;5.72;;;;;;;;;;7368552;19;20497;-59
2023/09/11 09:21:14;;;;;;;17.92;6.22;;;;;;;;;;7368652;19;20511;-59
2023/09/11 09:23:39;;;;;;;15.27;6.05;;;;;;;;;;7367700;19;20007;-61
2023/09/11 09:26:09;;;;;;;10.10;5.82;;;;;;;;;;7368911;19;20007;-60
2023/09/11 09:28:42;;;;;;;15.35;5.97;;;;;;;;;;7392152;19;19999;-60
2023/09/11 09:31:08;;;;;;;11.23;6.00;;;;;;;;;;7367434;19;20003;-60
2023/09/11 09:33:34;;;;;;;14.95;5.93;;;;;;;;;;7367986;19;20007;-58
2023/09/11 09:36:00;;;;;;;13.73;5.80;;;;;;;;;;7370455;19;20006;-60
2023/09/11 09:38:26;;;;;;;12.60;5.95;;;;;;;;;;7367691;19;20492;-58
2023/09/11 09:40:54;;;;;;;11.02;5.93;;;;;;;;;;7369446;19;20011;-60
2023/09/11 09:43:21;;;;;;;14.60;5.80;;;;;;;;;;7388251;19;20027;-60
2023/09/11 09:45:47;;;;;;;16.48;5.25;;;;;;;;;;7368247;19;20007;-60
2023/09/11 09:48:19;;;;;;;11.65;5.85;;;;;;;;;;7368369;19;19998;-60
2023/09/11 09:50:58;;;;;;;11.13;6.00;;;;;;;;;;7367620;19;20061;-60
2023/09/11 09:53:40;;;;;;;10.05;5.00;;;;;;;;;;7365274;19;20506;-60
2023/09/11 09:56:07;;;;;;;12.43;4.82;;;;;;;;;;7367338;19;20082;-69
2023/09/11 09:58:38;;;;;;;9.50;5.35;;;;;;;;;;7387250;19;20406;-68
2023/09/11 10:01:09;;;;;;;11.68;5.20;;;;;;;;;;7367432;19;20352;-69
2023/09/11 10:03:42;;;;;;;12.25;4.90;;;;;;;;;;7366980;19;20017;-68
2023/09/11 10:06:14;;;;;;;12.13;5.50;;;;;;;;;;7367178;19;20019;-68
2023/09/11 10:08:39;;;;;;;9.20;5.13;;;;;;;;;;7366256;19;20027;-68
2023/09/11 10:11:05;;;;;;;13.00;5.63;;;;;;;;;;7365750;19;20006;-68
2023/09/11 10:13:32;;;;;;;10.50;4.80;;;;;;;;;;7388450;19;20015;-68
2023/09/11 10:15:58;;;;;;;10.15;4.97;;;;;;;;;;7369086;19;20595;-68
2023/09/11 10:18:24;;;;;;;14.13;5.03;;;;;;;;;;7365512;19;20006;-68
2023/09/11 10:20:50;;;;;;;9.23;4.97;;;;;;;;;;7366746;19;20066;-68
2023/09/11 10:23:16;;;;;;;10.55;4.90;;;;;;;;;;7366618;19;20014;-68
2023/09/11 10:25:46;;;;;;;11.48;5.25;;;;;;;;;;7381978;19;20381;-68
2023/09/11 10:28:17;;;;;;;;;;;;;;;;;;7390899;19;20020;-70
2023/09/11 10:31:02;;;;;;;13.10;4.50;;;;;;;;;;7366141;19;20393;-68
2023/09/11 10:33:29;;;;;;;10.82;4.70;;;;;;;;;;7365633;19;20018;-67
2023/09/11 10:35:59;;;;;;;12.48;4.60;;;;;;;;;;7365846;19;20034;-67
2023/09/11 10:38:28;;;;;;;10.40;4.38;;;;;;;;;;7365417;19;20011;-68
2023/09/11 10:40:57;;;;;;;;;;;;;;;;;;7367985;19;20003;-69
2023/09/11 10:43:22;;;;;;;9.38;4.28;;;;;;;;;;7386048;19;19935;-69
2023/09/11 10:45:49;;;;;;;10.80;4.93;;;;;;;;;;7365202;19;20006;-69
2023/09/11 10:48:31;;;;;;;9.25;5.00;;;;;;;;;;7366878;19;20013;-67
2023/09/11 10:50:58;;;;;;;10.98;4.68;;;;;;;;;;7365946;19;20007;-68
2023/09/11 10:53:30;;;;;;;9.52;4.18;;;;;;;;;;7364253;19;20481;-68
2023/09/11 10:55:57;;;;;;;11.30;4.40;;;;;;;;;;7367624;19;19998;-67
2023/09/11 10:58:23;;;;;;;8.70;4.22;;;;;;;;;;7388728;19;19995;-67
2023/09/11 11:00:53;;;;;;;9.18;4.43;;;;;;;;;;7364056;19;20006;-68
2023/09/11 11:03:19;;;;;;;9.68;4.43;;;;;;;;;;7365389;19;20005;-67
2023/09/11 11:05:44;;;;;;;9.18;4.20;;;;;;;;;;7365368;19;20037;-68
2023/09/11 11:08:11;;;;;;;9.27;4.63;;;;;;;;;;7366191;19;20002;-67
2023/09/11 11:10:40;;;;;;;8.60;3.97;;;;;;;;;;7387447;19;20488;-67
2023/09/11 11:13:07;;;;;;;7.13;4.10;;;;;;;;;;7364374;19;20003;-67
2023/09/11 11:15:32;;;;;;;8.88;4.20;;;;;;;;;;7366355;19;20062;-67
2023/09/11 11:18:25;;;;;;;11.25;4.80;;;;;;;;;;7366642;19;20015;-67
2023/09/11 11:20:59;;;;;;;9.90;4.35;;;;;;;;;;7363248;19;19998;-67
2023/09/11 11:23:26;;;;;;;10.40;4.18;;;;;;;;;;7364070;19;20007;-67
2023/09/11 11:25:52;;;;;;;10.45;4.65;;;;;;;;;;7366270;19;20005;-67
2023/09/11 11:28:21;;;;;;;12.48;4.88;;;;;;;;;;7388261;19;20488;-67
2023/09/11 11:30:51;;;;;;;11.88;4.60;;;;;;;;;;7364700;19;20019;-67
2023/09/11 11:33:22;;;;;;;8.60;4.60;;;;;;;;;;7363648;19;20126;-67
2023/09/11 11:35:48;;;;;;;9.68;4.40;;;;;;;;;;7365832;19;20017;-67
2023/09/11 11:38:17;;;;;;;13.02;4.22;;;;;;;;;;7373053;19;20007;-66
2023/09/11 11:40:43;;;;;;;9.48;4.75;;;;;;;;;;7375189;19;20007;-66
2023/09/11 11:43:09;;;;;;;8.82;4.18;;;;;;;;;;7392332;19;20007;-67
2023/09/11 11:45:37;;;;;;;11.32;4.78;;;;;;;;;;7370197;19;20023;-67
2023/09/11 11:48:03;;;;;;;11.30;4.47;;;;;;;;;;7372131;19;20028;-68
2023/09/11 11:50:30;;;;;;;9.80;4.10;;;;;;;;;;7370475;19;20014;-68
2023/09/11 11:52:56;;;;;;;10.05;4.45;;;;;;;;;;7367903;19;20018;-69
2023/09/11 11:55:24;;;;;;;11.63;4.55;;;;;;;;;;7393932;19;20673;-67
2023/09/11 11:57:53;;;;;;;14.10;4.50;;;;;;;;;;7370389;19;20015;-67
2023/09/11 12:00:19;;;;;;;12.18;4.43;;;;;;;;;;7371848;19;20027;-67
2023/09/11 12:02:44;;;;;;;10.63;4.22;;;;;;;;;;7369439;19;20387;-67
2023/09/11 12:05:13;;;;;;;9.63;4.22;;;;;;;;;;7369996;19;20074;-67
2023/09/11 12:07:39;;;;;;;11.20;4.13;;;;;;;;;;7393097;19;20010;-67
2023/09/11 12:10:09;;;;;;;9.27;4.40;;;;;;;;;;7370572;19;20584;-68
2023/09/11 12:12:38;;;;;;;14.50;4.28;;;;;;;;;;7369384;19;20018;-68
2023/09/11 12:15:04;;;;;;;8.75;3.95;;;;;;;;;;7370892;19;20028;-68
2023/09/11 12:17:29;;;;;;;13.73;4.20;;;;;;;;;;7371021;19;20456;-68
2023/09/11 12:20:15;;;;;;;13.98;4.18;;;;;;;;;;7371762;19;20424;-68
2023/09/11 12:22:44;;;;;;;15.63;4.35;;;;;;;;;;7390711;19;20178;-68
2023/09/11 12:25:11;;;;;;;12.60;4.30;;;;;;;;;;7371373;19;19999;-68
2023/09/11 12:27:37;;;;;;;12.25;5.18;;;;;;;;;;7369404;19;20422;-68
2023/09/11 12:30:05;;;;;;;12.30;4.07;;;;;;;;;;7370798;19;20045;-68
2023/09/11 12:32:31;;;;;;;12.90;3.88;;;;;;;;;;7369097;19;20002;-68
2023/09/11 12:34:56;;;;;;;11.73;3.90;;;;;;;;;;7371544;19;20399;-68
2023/09/11 12:37:22;;;;;;;9.67;3.77;;;;;;;;;;7388880;19;19994;-68
2023/09/11 12:39:48;;;;;;;13.38;4.32;;;;;;;;;;7369357;19;20288;-68
2023/09/11 12:42:13;;;;;;;10.20;4.15;;;;;;;;;;7369557;19;20031;-68
2023/09/11 12:44:40;;;;;;;12.30;4.30;;;;;;;;;;7369407;19;20006;-69
2023/09/11 12:47:05;;;;;;;8.73;3.83;;;;;;;;;;7370695;19;20006;-69
2023/09/11 12:49:31;;;;;;;11.25;3.78;;;;;;;;;;7390045;19;20015;-68
2023/09/11 12:51:56;;;;;;;12.00;4.30;;;;;;;;;;7368426;19;20006;-68
2023/09/11 12:54:23;;;;;;;12.82;4.03;;;;;;;;;;7369912;19;20006;-68
2023/09/11 12:56:48;;;;;;;12.93;4.28;;;;;;;;;;7370739;19;20452;-68
2023/09/11 12:59:13;;;;;;;12.07;3.65;;;;;;;;;;7369320;19;20018;-68
2023/09/11 13:01:39;;;;;;;14.70;4.55;;;;;;;;;;7389134;19;20027;-68
2023/09/11 13:04:08;;;;;;;14.82;3.97;;;;;;;;;;7369732;19;19999;-68
2023/09/11 13:06:33;;;;;;;13.60;4.32;;;;;;;;;;7369763;19;20030;-68
2023/09/11 13:08:59;;;;;;;14.13;4.47;;;;;;;;;;7368084;19;20074;-68
2023/09/11 13:11:24;;;;;;;15.25;3.78;;;;;;;;;;7368628;19;20032;-68
2023/09/11 13:13:50;;;;;;;12.20;3.58;;;;;;;;;;7368722;19;20005;-68
2023/09/11 13:16:15;;;;;;;13.18;3.80;;;;;;;;;;7391766;19;20065;-68
2023/09/11 13:18:41;;;;;;;14.55;3.53;;;;;;;;;;7368947;19;20002;-67
2023/09/11 13:21:06;;;;;;;11.30;3.90;;;;;;;;;;7371100;19;20010;-68
2023/09/11 13:23:31;;;;;;;12.10;3.63;;;;;;;;;;7366518;19;20256;-67
2023/09/11 13:25:57;;;;;;;13.53;3.93;;;;;;;;;;7369038;19;20006;-67
2023/09/11 13:28:22;;;;;;;12.38;4.00;;;;;;;;;;7390985;19;20619;-67
2023/09/11 13:30:48;;;;;;;13.35;3.70;;;;;;;;;;7367662;19;20006;-67
2023/09/11 13:33:13;;;;;;;13.75;3.35;;;;;;;;;;7366455;19;20007;-68
2023/09/11 13:35:39;;;;;;;13.35;3.13;;;;;;;;;;7369358;19;20006;-68
2023/09/11 13:38:04;;;;;;;16.58;4.72;;;;;;;;;;7366862;19;20496;-66
2023/09/11 13:40:30;;;;;;;15.43;3.50;;;;;;;;;;7390826;19;20480;-69
2023/09/11 13:42:55;;;;;;;9.48;3.33;;;;;;;;;;7366945;19;20030;-68
2023/09/11 13:45:20;;;;;;;17.83;3.90;;;;;;;;;;7368207;19;20696;-68
2023/09/11 13:47:45;;;;;;;10.15;3.45;;;;;;;;;;7369006;19;20256;-68
2023/09/11 13:50:11;;;;;;;12.05;3.42;;;;;;;;;;7368505;19;20006;-69
2023/09/11 13:52:37;;;;;;;15.57;3.50;;;;;;;;;;7387715;19;20499;-69
2023/09/11 13:55:03;;;;;;;10.98;3.53;;;;;;;;;;7364701;19;20014;-68
2023/09/11 13:57:29;;;;;;;16.20;3.67;;;;;;;;;;7367782;19;20833;-68
2023/09/11 13:59:54;;;;;;;13.90;3.88;;;;;;;;;;7365517;19;20011;-68
2023/09/11 14:02:20;;;;;;;14.25;3.80;;;;;;;;;;7365838;19;20006;-68
2023/09/11 14:04:45;;;;;;;11.23;3.47;;;;;;;;;;7367743;19;20002;-68
2023/09/11 14:07:10;;;;;;;15.10;3.53;;;;;;;;;;7389293;19;20004;-68
2023/09/11 14:09:36;;;;;;;12.00;3.77;;;;;;;;;;7366585;19;20011;-68
2023/09/11 14:12:01;;;;;;;8.88;3.40;;;;;;;;;;7365734;19;20254;-68
2023/09/11 14:14:27;;;;;;;10.07;3.43;;;;;;;;;;7367304;19;20093;-68
2023/09/11 14:16:53;;;;;;;18.17;3.80;;;;;;;;;;7367677;19;20255;-68
2023/09/11 14:19:18;;;;;;;13.93;3.97;;;;;;;;;;7388378;19;20263;-68
2023/09/11 14:21:43;;;;;;;12.93;3.40;;;;;;;;;;7362724;19;20019;-68
2023/09/11 14:24:09;;;;;;;9.88;3.13;;;;;;;;;;7366800;19;20014;-68
2023/09/11 14:26:34;;;;;;;10.80;3.35;;;;;;;;;;7366631;19;20006;-68